createdAt,value
2022-09-22T00:01:38.398Z,101717.92
2022-09-22T00:04:08.884Z,101721.01
2022-09-22T00:06:47.690Z,101724.45
2022-09-22T00:09:18.418Z,101723.33
2022-09-22T00:11:49.866Z,101726.69
2022-09-22T00:14:23.962Z,101729.38
2022-09-22T00:17:01.286Z,101730.53
2022-09-22T00:19:32.575Z,101725.27
2022-09-22T00:22:00.852Z,101725.39
2022-09-22T00:24:29.558Z,101726.66
2022-09-22T00:26:59.629Z,101727.73
2022-09-22T00:29:29.612Z,101728.57
2022-09-22T00:32:00.273Z,101725.14
2022-09-22T00:34:30.420Z,101726.26
2022-09-22T00:36:58.273Z,101727.32
2022-09-22T00:39:27.630Z,101726.59
2022-09-22T00:41:55.440Z,101723.01
2022-09-22T00:44:44.979Z,101714.05
2022-09-22T00:47:37.422Z,101719.75
2022-09-22T00:50:24.909Z,101719.73
2022-09-22T00:52:56.072Z,101718.63
2022-09-22T00:55:52.116Z,101717.84
2022-09-22T00:58:26.974Z,101720.19
2022-09-22T01:00:55.203Z,101718.81
2022-09-22T01:03:29.586Z,101718.63
2022-09-22T01:06:01.901Z,101716.73
2022-09-22T01:08:31.714Z,101720.17
2022-09-22T01:11:00.429Z,101720.30
2022-09-22T01:13:35.480Z,101716.30
2022-09-22T01:16:06.214Z,101713.95
2022-09-22T01:19:16.124Z,101715.20
2022-09-22T01:21:59.369Z,101715.03
2022-09-22T01:24:54.173Z,101712.27
2022-09-22T01:28:00.591Z,101712.59
2022-09-22T01:31:00.740Z,101709.47
2022-09-22T01:33:28.659Z,101707.11
2022-09-22T01:36:19.289Z,101703.70
2022-09-22T01:39:12.348Z,101700.83
2022-09-22T01:41:48.978Z,101697.79
2022-09-22T01:44:25.432Z,101699.13
2022-09-22T01:47:00.491Z,101701.83
2022-09-22T01:49:32.870Z,101701.73
2022-09-22T01:52:08.824Z,101702.63
2022-09-22T01:54:42.297Z,101704.12
2022-09-22T01:57:18.216Z,101699.70
2022-09-22T01:59:55.127Z,101696.08
2022-09-22T02:02:33.887Z,101693.85
2022-09-22T02:05:06.373Z,101688.63
2022-09-22T02:07:39.636Z,101693.10
2022-09-22T02:10:11.682Z,101692.66
2022-09-22T02:12:39.720Z,101688.57
2022-09-22T02:15:29.390Z,101694.70
2022-09-22T02:18:03.062Z,101697.00
2022-09-22T02:20:31.034Z,101701.17
2022-09-22T02:22:59.090Z,101701.70
2022-09-22T02:25:29.162Z,101703.60
2022-09-22T02:27:58.253Z,101703.91
2022-09-22T02:30:27.610Z,101706.88
2022-09-22T02:32:58.818Z,101706.02
2022-09-22T02:35:30.030Z,101709.15
2022-09-22T02:38:00.772Z,101709.60
2022-09-22T02:40:33.310Z,101707.20
2022-09-22T02:43:09.345Z,101709.95
2022-09-22T02:45:51.214Z,101706.91
2022-09-22T02:48:24.700Z,101706.83
2022-09-22T02:50:54.468Z,101705.11
2022-09-22T02:53:22.644Z,101706.11
2022-09-22T02:55:51.035Z,101705.80
2022-09-22T02:58:18.934Z,101697.54
2022-09-22T03:00:47.211Z,101705.06
2022-09-22T03:03:15.187Z,101702.48
2022-09-22T03:05:43.088Z,101708.67
2022-09-22T03:08:10.950Z,101698.92
2022-09-22T03:10:38.885Z,101694.90
2022-09-22T03:13:16.458Z,101696.32
2022-09-22T03:15:46.523Z,101699.16
2022-09-22T03:18:14.924Z,101691.92
2022-09-22T03:20:43.056Z,101689.90
2022-09-22T03:23:10.938Z,101691.73
2022-09-22T03:25:38.822Z,101692.67
2022-09-22T03:28:06.599Z,101691.69
2022-09-22T03:30:36.350Z,101695.10
2022-09-22T03:33:04.283Z,101698.61
2022-09-22T03:35:32.425Z,101700.11
2022-09-22T03:38:00.239Z,101701.27
2022-09-22T03:40:28.326Z,101699.67
2022-09-22T03:42:56.286Z,101700.81
2022-09-22T03:45:24.633Z,101698.22
2022-09-22T03:47:54.461Z,101700.85
2022-09-22T03:50:22.600Z,101704.05
2022-09-22T03:52:50.458Z,101706.58
2022-09-22T03:55:18.527Z,101703.83
2022-09-22T03:57:46.960Z,101703.74
2022-09-22T04:00:15.725Z,101702.77
2022-09-22T04:02:44.038Z,101703.77
2022-09-22T04:05:11.988Z,101703.94
2022-09-22T04:07:39.932Z,101706.23
2022-09-22T04:10:08.516Z,101705.09
2022-09-22T04:12:37.426Z,101701.40
2022-09-22T04:15:06.374Z,101702.10
2022-09-22T04:17:34.612Z,101701.55
2022-09-22T04:20:03.460Z,101698.89
2022-09-22T04:22:31.433Z,101695.73
2022-09-22T04:24:59.258Z,101691.11
2022-09-22T04:27:27.134Z,101697.64
2022-09-22T04:29:55.011Z,101696.65
2022-09-22T04:32:23.524Z,101698.86
2022-09-22T04:34:51.429Z,101698.52
2022-09-22T04:37:19.388Z,101696.61
2022-09-22T04:39:47.169Z,101700.73
2022-09-22T04:42:15.315Z,101696.89
2022-09-22T04:44:43.490Z,101697.36
2022-09-22T04:47:11.320Z,101694.11
2022-09-22T04:49:39.423Z,101692.33
2022-09-22T04:52:07.938Z,101688.83
2022-09-22T04:54:36.320Z,101698.08
2022-09-22T04:57:04.337Z,101698.67
2022-09-22T04:59:32.422Z,101696.52
2022-09-22T05:02:00.339Z,101702.09
2022-09-22T05:04:28.813Z,101704.25
2022-09-22T05:06:56.629Z,101704.55
2022-09-22T05:09:24.925Z,101708.51
2022-09-22T05:11:54.440Z,101705.13
2022-09-22T05:14:26.513Z,101703.02
2022-09-22T05:16:54.661Z,101702.52
2022-09-22T05:19:22.660Z,101705.30
2022-09-22T05:21:51.018Z,101704.31
2022-09-22T05:24:18.897Z,101704.84
2022-09-22T05:26:47.163Z,101707.45
2022-09-22T05:29:16.050Z,101700.30
2022-09-22T05:31:45.529Z,101705.78
2022-09-22T05:34:13.387Z,101709.48
2022-09-22T05:36:41.613Z,101705.91
2022-09-22T05:39:09.598Z,101710.92
2022-09-22T05:41:37.486Z,101711.73
2022-09-22T05:44:05.339Z,101709.08
2022-09-22T05:46:33.422Z,101705.78
2022-09-22T05:49:01.272Z,101705.81
2022-09-22T05:51:29.127Z,101708.56
2022-09-22T05:53:57.009Z,101706.77
2022-09-22T05:56:24.853Z,101702.87
2022-09-22T05:58:52.636Z,101699.23
2022-09-22T06:01:20.535Z,101701.67
2022-09-22T06:03:48.330Z,101702.83
2022-09-22T06:06:16.228Z,101709.79
2022-09-22T06:08:48.613Z,101715.10
2022-09-22T06:11:17.073Z,101717.65
2022-09-22T06:13:45.121Z,101717.15
2022-09-22T06:16:13.322Z,101717.59
2022-09-22T06:18:41.514Z,101716.18
2022-09-22T06:21:09.784Z,101716.81
2022-09-22T06:23:42.587Z,101716.68
2022-09-22T06:26:11.705Z,101717.52
2022-09-22T06:28:39.568Z,101719.00
2022-09-22T06:31:07.483Z,101720.92
2022-09-22T06:33:35.967Z,101722.39
2022-09-22T06:36:08.127Z,101724.27
2022-09-22T06:38:36.095Z,101727.87
2022-09-22T06:41:06.881Z,101728.35
2022-09-22T06:43:38.015Z,101728.30
2022-09-22T06:46:06.148Z,101732.39
2022-09-22T06:48:34.746Z,101728.38
2022-09-22T06:51:02.568Z,101733.36
2022-09-22T06:53:31.266Z,101730.79
2022-09-22T06:56:00.518Z,101734.89
2022-09-22T06:58:29.237Z,101733.23
2022-09-22T07:01:08.932Z,101736.07
2022-09-22T07:03:41.813Z,101734.31
2022-09-22T07:06:11.114Z,101731.25
2022-09-22T07:08:39.674Z,101734.15
2022-09-22T07:11:09.508Z,101730.08
2022-09-22T07:13:41.256Z,101728.80
2022-09-22T07:16:17.911Z,101731.42
2022-09-22T07:18:51.552Z,101733.23
2022-09-22T07:21:25.773Z,101731.69
2022-09-22T07:23:55.639Z,101736.38
2022-09-22T07:26:30.878Z,101734.70
2022-09-22T07:29:00.994Z,101731.17
2022-09-22T07:31:32.288Z,101731.53
2022-09-22T07:34:00.904Z,101733.13
2022-09-22T07:36:31.461Z,101730.73
2022-09-22T07:39:07.754Z,101728.79
2022-09-22T07:41:43.831Z,101731.35
2022-09-22T07:44:33.756Z,101733.01
2022-09-22T07:47:03.684Z,101733.61
2022-09-22T07:49:32.394Z,101731.14
2022-09-22T07:52:00.346Z,101730.68
2022-09-22T07:54:28.310Z,101730.13
2022-09-22T07:56:59.060Z,101726.19
2022-09-22T07:59:27.711Z,101732.20
2022-09-22T08:01:55.963Z,101732.52
2022-09-22T08:04:26.791Z,101732.60
2022-09-22T08:06:56.242Z,101729.71
2022-09-22T08:09:25.528Z,101726.95
2022-09-22T08:11:55.212Z,101728.52
2022-09-22T08:14:23.318Z,101727.69
2022-09-22T08:16:53.749Z,101728.20
2022-09-22T08:19:23.777Z,101730.36
2022-09-22T08:21:54.319Z,101728.66
2022-09-22T08:24:23.828Z,101734.42
2022-09-22T08:26:56.095Z,101732.06
2022-09-22T08:29:25.340Z,101735.56
2022-09-22T08:31:54.406Z,101740.02
2022-09-22T08:34:23.239Z,101738.20
2022-09-22T08:36:51.905Z,101735.58
2022-09-22T08:39:19.778Z,101735.03
2022-09-22T08:42:18.434Z,101733.19
2022-09-22T08:45:03.103Z,101739.96
2022-09-22T08:48:12.670Z,101736.81
2022-09-22T08:51:07.856Z,101734.17
2022-09-22T08:53:43.595Z,101737.08
2022-09-22T08:56:22.257Z,101734.47
2022-09-22T08:59:23.867Z,101731.34
2022-09-22T09:02:29.047Z,101726.67
2022-09-22T09:05:15.413Z,101722.83
2022-09-22T09:08:00.409Z,101718.33
2022-09-22T09:10:43.108Z,101720.80
2022-09-22T09:13:41.186Z,101724.52
2022-09-22T09:16:38.168Z,101720.75
2022-09-22T09:19:35.090Z,101718.36
2022-09-22T09:22:12.672Z,101719.92
2022-09-22T09:27:42.536Z,101721.71
2022-09-22T09:30:16.173Z,101726.45
2022-09-22T09:32:55.913Z,101717.67
2022-09-22T09:35:44.337Z,101718.90
2022-09-22T09:38:16.876Z,101718.27
2022-09-22T09:40:54.397Z,101718.29
2022-09-22T09:43:25.838Z,101719.05
2022-09-22T09:46:15.033Z,101715.91
2022-09-22T09:49:02.839Z,101717.48
2022-09-22T09:51:39.912Z,101716.59
2022-09-22T09:54:18.834Z,101714.10
2022-09-22T09:57:09.677Z,101711.52
2022-09-22T09:59:58.856Z,101718.36
2022-09-22T10:02:38.863Z,101710.63
2022-09-22T10:05:22.501Z,101711.73
2022-09-22T10:07:58.256Z,101713.23
2022-09-22T10:10:28.809Z,101710.26
2022-09-22T10:13:05.612Z,101707.83
2022-09-22T10:15:36.454Z,101711.85
2022-09-22T10:18:24.303Z,101710.63
2022-09-22T10:21:19.158Z,101706.73
2022-09-22T10:23:54.903Z,101706.69
2022-09-22T10:26:27.108Z,101706.41
2022-09-22T10:29:20.023Z,101704.14
2022-09-22T10:32:15.733Z,101698.23
2022-09-22T10:34:50.862Z,101697.60
2022-09-22T10:37:28.161Z,101693.96
2022-09-22T10:40:02.001Z,101695.77
2022-09-22T10:42:40.986Z,101695.19
2022-09-22T10:45:19.300Z,101700.54
2022-09-22T10:47:51.458Z,101695.49
2022-09-22T10:50:41.460Z,101692.39
2022-09-22T10:53:35.021Z,101693.92
2022-09-22T10:56:13.876Z,101697.57
2022-09-22T10:59:20.611Z,101695.36
2022-09-22T11:02:25.774Z,101693.86
2022-09-22T11:05:50.981Z,101697.52
2022-09-22T11:08:39.768Z,101693.68
2022-09-22T11:11:37.256Z,101690.13
2022-09-22T11:14:18.877Z,101686.69
2022-09-22T11:17:05.321Z,101681.88
2022-09-22T11:19:58.785Z,101679.36
2022-09-22T11:22:26.588Z,101676.63
2022-09-22T11:25:25.134Z,101672.59
2022-09-22T11:28:04.885Z,101675.65
2022-09-22T11:30:45.789Z,101678.55
2022-09-22T11:33:32.434Z,101680.52
2022-09-22T11:36:18.840Z,101675.59
2022-09-22T11:39:00.595Z,101681.25
2022-09-22T11:41:47.658Z,101674.92
2022-09-22T11:44:30.886Z,101673.98
2022-09-22T11:47:20.763Z,101673.19
2022-09-22T11:50:14.250Z,101669.55
2022-09-22T11:53:06.502Z,101666.27
2022-09-22T11:55:41.806Z,101662.22
2022-09-22T11:58:21.564Z,101662.88
2022-09-22T12:01:13.721Z,101663.84
2022-09-22T12:03:50.602Z,101663.91
2022-09-22T12:06:21.871Z,101664.60
2022-09-22T12:09:03.647Z,101662.91
2022-09-22T12:11:36.898Z,101660.88
2022-09-22T12:14:06.850Z,101660.63
2022-09-22T12:16:42.274Z,101659.57
2022-09-22T12:19:32.388Z,101660.00
2022-09-22T12:22:21.721Z,101664.83
2022-09-22T12:24:49.725Z,101658.44
2022-09-22T12:27:17.429Z,101661.06
2022-09-22T12:29:46.354Z,101655.86
2022-09-22T12:32:36.203Z,101653.64
2022-09-22T12:35:05.695Z,101649.64
2022-09-22T12:37:38.316Z,101646.05
2022-09-22T12:40:37.357Z,101649.86
2022-09-22T12:43:06.077Z,101651.81
2022-09-22T12:45:37.632Z,101642.59
2022-09-22T12:48:15.065Z,101645.52
2022-09-22T12:50:45.161Z,101644.37
2022-09-22T12:53:22.090Z,101646.92
2022-09-22T12:55:57.229Z,101649.41
2022-09-22T12:58:28.716Z,101644.41
2022-09-22T13:01:28.522Z,101646.85
2022-09-22T13:04:12.018Z,101648.98
2022-09-22T13:06:39.799Z,101644.05
2022-09-22T13:09:18.846Z,101651.62
2022-09-22T13:12:23.070Z,101647.67
2022-09-22T13:15:06.245Z,101642.67
2022-09-22T13:17:41.570Z,101646.93
2022-09-22T13:20:22.166Z,101641.27
2022-09-22T13:22:52.150Z,101639.58
2022-09-22T13:25:24.273Z,101637.11
2022-09-22T13:28:13.071Z,101638.70
2022-09-22T13:30:43.228Z,101636.33
2022-09-22T13:33:25.811Z,101630.27
2022-09-22T13:36:06.510Z,101631.51
2022-09-22T13:38:38.535Z,101630.00
2022-09-22T13:41:19.061Z,101624.80
2022-09-22T13:43:56.711Z,101626.36
2022-09-22T13:46:47.039Z,101626.21
2022-09-22T13:49:35.984Z,101624.95
2022-09-22T13:52:12.758Z,101618.78
2022-09-22T13:54:41.316Z,101614.81
2022-09-22T13:57:20.578Z,101613.64
2022-09-22T13:59:48.783Z,101617.05
2022-09-22T14:02:22.963Z,101616.83
2022-09-22T14:04:56.636Z,101617.00
2022-09-22T14:07:29.964Z,101612.17
2022-09-22T14:10:01.435Z,101613.48
2022-09-22T14:12:30.425Z,101617.35
2022-09-22T14:15:36.962Z,101613.90
2022-09-22T14:18:16.821Z,101613.71
2022-09-22T14:20:45.796Z,101610.08
2022-09-22T14:23:23.701Z,101610.22
2022-09-22T14:25:51.754Z,101612.11
2022-09-22T14:28:25.076Z,101611.62
2022-09-22T14:30:53.994Z,101614.70
2022-09-22T14:33:29.749Z,101619.33
2022-09-22T14:36:05.066Z,101619.16
2022-09-22T14:38:48.153Z,101618.06
2022-09-22T14:41:36.593Z,101616.10
2022-09-22T14:44:52.467Z,101611.67
2022-09-22T14:47:26.533Z,101612.87
2022-09-22T14:50:16.928Z,101611.60
2022-09-22T14:52:54.326Z,101613.48
2022-09-22T14:55:34.591Z,101610.44
2022-09-22T14:58:22.853Z,101608.22
2022-09-22T15:01:18.307Z,101606.27
2022-09-22T15:03:55.705Z,101604.91
2022-09-22T15:06:23.646Z,101599.94
2022-09-22T15:08:52.654Z,101595.26
2022-09-22T15:11:20.543Z,101593.13
2022-09-22T15:13:51.526Z,101596.75
2022-09-22T15:16:36.003Z,101593.90
2022-09-22T15:19:05.362Z,101591.02
2022-09-22T15:21:37.961Z,101592.16
2022-09-22T15:24:06.174Z,101588.15
2022-09-22T15:26:34.334Z,101587.81
2022-09-22T15:29:02.999Z,101589.19
2022-09-22T15:31:32.552Z,101588.80
2022-09-22T15:34:03.137Z,101589.49
2022-09-22T15:36:33.298Z,101588.81
2022-09-22T15:39:22.730Z,101591.49
2022-09-22T15:41:52.444Z,101594.68
2022-09-22T15:44:20.748Z,101591.55
2022-09-22T15:46:54.514Z,101586.90
2022-09-22T15:49:26.371Z,101588.51
2022-09-22T15:51:56.108Z,101588.88
2022-09-22T15:54:26.230Z,101590.55
2022-09-22T15:56:55.901Z,101592.92
2022-09-22T15:59:28.406Z,101598.41
2022-09-22T16:01:59.347Z,101592.99
2022-09-22T16:04:30.593Z,101589.93
2022-09-22T16:07:02.766Z,101586.67
2022-09-22T16:09:31.259Z,101586.21
2022-09-22T16:11:59.809Z,101585.58
2022-09-22T16:14:27.998Z,101581.44
2022-09-22T16:16:55.836Z,101579.73
2022-09-22T16:19:23.682Z,101571.03
2022-09-22T16:21:56.415Z,101573.75
2022-09-22T16:24:28.054Z,101575.29
2022-09-22T16:26:56.324Z,101567.32
2022-09-22T16:29:25.334Z,101570.44
2022-09-22T16:31:53.978Z,101570.50
2022-09-22T16:34:22.078Z,101567.02
2022-09-22T16:36:49.976Z,101570.50
2022-09-22T16:39:17.802Z,101571.67
2022-09-22T16:41:46.596Z,101566.33
2022-09-22T16:44:16.112Z,101562.04
2022-09-22T16:46:44.047Z,101566.70
2022-09-22T16:49:16.301Z,101563.33
2022-09-22T16:51:48.873Z,101566.95
2022-09-22T16:54:19.579Z,101568.53
2022-09-22T16:56:50.009Z,101569.23
2022-09-22T16:59:19.753Z,101567.15
2022-09-22T17:01:49.063Z,101565.72
2022-09-22T17:04:19.323Z,101573.45
2022-09-22T17:06:48.234Z,101574.35
2022-09-22T17:09:16.898Z,101575.39
2022-09-22T17:11:48.815Z,101572.48
2022-09-22T17:14:22.105Z,101571.40
2022-09-22T17:16:52.500Z,101574.63
2022-09-22T17:19:23.581Z,101575.54
2022-09-22T17:21:54.094Z,101574.55
2022-09-22T17:24:23.682Z,101573.77
2022-09-22T17:26:54.632Z,101572.81
2022-09-22T17:29:25.483Z,101574.09
2022-09-22T17:31:57.400Z,101578.61
2022-09-22T17:34:28.892Z,101577.95
2022-09-22T17:36:58.087Z,101581.59
2022-09-22T17:39:28.387Z,101580.04
2022-09-22T17:41:56.750Z,101577.47
2022-09-22T17:44:28.677Z,101575.71
2022-09-22T17:47:15.462Z,101569.02
2022-09-22T17:50:02.157Z,101580.05
2022-09-22T17:52:49.024Z,101575.91
2022-09-22T17:55:21.746Z,101575.80
2022-09-22T17:57:51.840Z,101575.66
2022-09-22T18:00:22.308Z,101582.30
2022-09-22T18:02:52.754Z,101578.41
2022-09-22T18:05:25.621Z,101577.80
2022-09-22T18:07:57.915Z,101580.54
2022-09-22T18:10:31.095Z,101585.65
2022-09-22T18:13:00.038Z,101585.64
2022-09-22T18:15:29.386Z,101585.21
2022-09-22T18:17:58.298Z,101586.27
2022-09-22T18:20:27.784Z,101582.94
2022-09-22T18:22:57.963Z,101592.97
2022-09-22T18:25:25.933Z,101595.89
2022-09-22T18:27:54.591Z,101599.21
2022-09-22T18:30:23.193Z,101601.02
2022-09-22T18:32:51.900Z,101600.89
2022-09-22T18:35:20.275Z,101599.13
2022-09-22T18:37:48.135Z,101595.67
2022-09-22T18:40:17.276Z,101597.88
2022-09-22T18:42:45.385Z,101602.01
2022-09-22T18:45:14.399Z,101599.54
2022-09-22T18:47:43.812Z,101604.30
2022-09-22T18:50:12.772Z,101602.73
2022-09-22T18:52:43.344Z,101603.45
2022-09-22T18:55:14.198Z,101597.96
2022-09-22T18:57:43.163Z,101599.08
2022-09-22T19:00:11.713Z,101605.36
2022-09-22T19:02:40.000Z,101602.95
2022-09-22T19:05:08.594Z,101600.66
2022-09-22T19:07:43.886Z,101601.52
2022-09-22T19:10:21.918Z,101602.64
2022-09-22T19:12:50.840Z,101603.69
2022-09-22T19:15:19.819Z,101604.21
2022-09-22T19:17:49.842Z,101602.05
2022-09-22T19:20:23.432Z,101600.16
2022-09-22T19:22:52.841Z,101600.11
2022-09-22T19:25:22.461Z,101599.98
2022-09-22T19:27:53.013Z,101601.89
2022-09-22T19:30:24.792Z,101601.77
2022-09-22T19:32:55.653Z,101601.34
2022-09-22T19:35:24.022Z,101601.25
2022-09-22T19:37:52.438Z,101608.16
2022-09-22T19:40:24.429Z,101606.72
2022-09-22T19:42:54.085Z,101599.77
2022-09-22T19:45:24.089Z,101609.34
2022-09-22T19:47:54.053Z,101614.56
2022-09-22T19:50:21.982Z,101605.81
2022-09-22T19:52:50.236Z,101608.60
2022-09-22T19:55:21.009Z,101611.03
2022-09-22T19:57:52.447Z,101613.02
2022-09-22T20:00:26.769Z,101613.22
2022-09-22T20:02:59.218Z,101615.33
2022-09-22T20:05:34.755Z,101611.38
2022-09-22T20:08:15.705Z,101606.73
2022-09-22T20:10:45.603Z,101603.46
2022-09-22T20:13:33.038Z,101605.98
2022-09-22T20:16:01.980Z,101601.02
2022-09-22T20:18:29.996Z,101600.69
2022-09-22T20:21:01.461Z,101603.61
2022-09-22T20:23:29.469Z,101602.73
2022-09-22T20:25:57.348Z,101603.19
2022-09-22T20:28:25.305Z,101599.80
2022-09-22T20:30:53.347Z,101602.84
2022-09-22T20:33:23.624Z,101596.17
2022-09-22T20:35:57.646Z,101603.59
2022-09-22T20:38:25.954Z,101604.37
2022-09-22T20:40:53.879Z,101602.75
2022-09-22T20:43:21.827Z,101604.73
2022-09-22T20:45:49.781Z,101605.95
2022-09-22T20:48:19.205Z,101605.42
2022-09-22T20:50:57.605Z,101606.83
2022-09-22T20:53:26.794Z,101603.21
2022-09-22T20:56:06.804Z,101601.66
2022-09-22T20:58:40.712Z,101602.84
2022-09-22T21:01:10.603Z,101601.35
2022-09-22T21:03:39.770Z,101597.45
2022-09-22T21:06:10.088Z,101594.54
2022-09-22T21:08:59.404Z,101592.70
2022-09-22T21:11:28.450Z,101591.47
2022-09-22T21:14:05.747Z,101585.68
2022-09-22T21:16:38.424Z,101583.83
2022-09-22T21:19:07.674Z,101583.92
2022-09-22T21:21:37.864Z,101588.91
2022-09-22T21:24:08.209Z,101588.77
2022-09-22T21:26:36.207Z,101581.58
2022-09-22T21:29:05.033Z,101580.16
2022-09-22T21:31:34.547Z,101582.23
2022-09-22T21:34:02.481Z,101576.98
2022-09-22T21:36:30.511Z,101583.65
2022-09-22T21:39:00.152Z,101582.66
2022-09-22T21:41:30.414Z,101583.94
2022-09-22T21:44:00.139Z,101586.66
2022-09-22T21:46:30.016Z,101588.11
2022-09-22T21:49:02.056Z,101589.52
2022-09-22T21:51:36.352Z,101583.10
2022-09-22T21:54:05.659Z,101582.75
2022-09-22T21:56:34.747Z,101583.02
2022-09-22T21:59:04.595Z,101578.60
2022-09-22T22:01:35.393Z,101576.48
2022-09-22T22:04:08.207Z,101578.15
2022-09-22T22:06:40.301Z,101581.18
2022-09-22T22:09:22.885Z,101582.94
2022-09-22T22:11:54.876Z,101586.50
2022-09-22T22:14:24.892Z,101584.56
2022-09-22T22:16:54.949Z,101589.86
2022-09-22T22:19:27.060Z,101588.41
2022-09-22T22:21:55.577Z,101587.99
2022-09-22T22:24:42.293Z,101583.80
2022-09-22T22:27:10.834Z,101581.95
2022-09-22T22:29:41.151Z,101581.63
2022-09-22T22:32:10.737Z,101584.86
2022-09-22T22:34:38.865Z,101581.92
2022-09-22T22:37:09.642Z,101583.65
2022-09-22T22:39:38.791Z,101577.06
2022-09-22T22:42:07.083Z,101578.59
2022-09-22T22:44:35.374Z,101579.91
2022-09-22T22:47:05.356Z,101575.02
2022-09-22T22:49:34.058Z,101575.70
2022-09-22T22:52:02.194Z,101575.20
2022-09-22T22:54:30.041Z,101573.91
2022-09-22T22:56:57.910Z,101569.93
2022-09-22T22:59:25.725Z,101566.87
2022-09-22T23:01:54.214Z,101567.30
2022-09-22T23:04:22.286Z,101564.39
2022-09-22T23:06:50.126Z,101562.69
2022-09-22T23:09:18.065Z,101565.46
2022-09-22T23:11:46.584Z,101564.89
2022-09-22T23:14:16.336Z,101563.65
2022-09-22T23:16:46.882Z,101560.42
2022-09-22T23:19:17.310Z,101557.96
2022-09-22T23:21:46.700Z,101554.90
2022-09-22T23:24:16.829Z,101558.15
2022-09-22T23:26:46.407Z,101554.02
2022-09-22T23:29:14.688Z,101550.01
2022-09-22T23:31:43.085Z,101548.26
2022-09-22T23:34:11.098Z,101550.55
2022-09-22T23:36:39.748Z,101551.80
2022-09-22T23:39:08.357Z,101553.11
2022-09-22T23:41:37.286Z,101547.55
2022-09-22T23:44:07.052Z,101545.94
2022-09-22T23:46:37.632Z,101548.02
2022-09-22T23:49:06.212Z,101548.35
2022-09-22T23:51:33.982Z,101551.90
2022-09-22T23:54:01.856Z,101547.77
2022-09-22T23:56:29.860Z,101545.05
2022-09-22T23:58:57.961Z,101545.39
